sensor_id;sensor_type;location;lat;lon;timestamp;P1;durP1;ratioP1;P2;durP2;ratioP2
10343;SDS011;5217;43.960;10.954;2022-10-15T00:01:42;4.68;;;2.90;;
10343;SDS011;5217;43.960;10.954;2022-10-15T00:04:10;4.93;;;3.20;;
10343;SDS011;5217;43.960;10.954;2022-10-15T00:06:39;4.22;;;3.20;;
10343;SDS011;5217;43.960;10.954;2022-10-15T00:09:07;5.20;;;3.38;;
10343;SDS011;5217;43.960;10.954;2022-10-15T00:11:37;5.03;;;3.20;;
10343;SDS011;5217;43.960;10.954;2022-10-15T00:14:05;4.75;;;3.15;;
10343;SDS011;5217;43.960;10.954;2022-10-15T00:16:34;4.40;;;3.35;;
10343;SDS011;5217;43.960;10.954;2022-10-15T00:19:02;5.38;;;3.38;;
10343;SDS011;5217;43.960;10.954;2022-10-15T00:21:30;4.88;;;3.30;;
10343;SDS011;5217;43.960;10.954;2022-10-15T00:23:59;4.65;;;3.20;;
10343;SDS011;5217;43.960;10.954;2022-10-15T00:26:28;3.75;;;3.10;;
10343;SDS011;5217;43.960;10.954;2022-10-15T00:28:59;4.18;;;3.17;;
10343;SDS011;5217;43.960;10.954;2022-10-15T00:31:29;4.28;;;3.42;;
10343;SDS011;5217;43.960;10.954;2022-10-15T00:33:59;4.93;;;3.15;;
10343;SDS011;5217;43.960;10.954;2022-10-15T00:36:29;4.15;;;3.10;;
10343;SDS011;5217;43.960;10.954;2022-10-15T00:38:58;5.22;;;3.40;;
10343;SDS011;5217;43.960;10.954;2022-10-15T00:41:28;4.28;;;3.00;;
10343;SDS011;5217;43.960;10.954;2022-10-15T00:43:59;4.10;;;3.20;;
10343;SDS011;5217;43.960;10.954;2022-10-15T00:46:29;3.45;;;3.00;;
10343;SDS011;5217;43.960;10.954;2022-10-15T00:49:01;4.80;;;2.80;;
10343;SDS011;5217;43.960;10.954;2022-10-15T00:51:32;3.35;;;3.00;;
10343;SDS011;5217;43.960;10.954;2022-10-15T00:54:05;5.40;;;3.00;;
10343;SDS011;5217;43.960;10.954;2022-10-15T00:56:33;4.43;;;3.28;;
10343;SDS011;5217;43.960;10.954;2022-10-15T00:59:05;3.55;;;3.22;;
10343;SDS011;5217;43.960;10.954;2022-10-15T01:01:34;6.30;;;3.63;;
10343;SDS011;5217;43.960;10.954;2022-10-15T01:04:03;5.18;;;3.10;;
10343;SDS011;5217;43.960;10.954;2022-10-15T01:06:33;4.47;;;3.42;;
10343;SDS011;5217;43.960;10.954;2022-10-15T01:09:02;3.70;;;3.17;;
10343;SDS011;5217;43.960;10.954;2022-10-15T01:11:35;5.40;;;3.00;;
10343;SDS011;5217;43.960;10.954;2022-10-15T01:14:12;4.30;;;2.97;;
10343;SDS011;5217;43.960;10.954;2022-10-15T01:16:52;5.40;;;3.00;;
10343;SDS011;5217;43.960;10.954;2022-10-15T01:19:41;3.50;;;2.78;;
10343;SDS011;5217;43.960;10.954;2022-10-15T01:22:40;3.97;;;3.08;;
10343;SDS011;5217;43.960;10.954;2022-10-15T01:25:20;4.40;;;3.17;;
10343;SDS011;5217;43.960;10.954;2022-10-15T01:27:56;5.97;;;3.15;;
10343;SDS011;5217;43.960;10.954;2022-10-15T01:30:37;3.38;;;3.08;;
10343;SDS011;5217;43.960;10.954;2022-10-15T01:36:05;3.13;;;2.80;;
10343;SDS011;5217;43.960;10.954;2022-10-15T01:38:47;4.82;;;3.40;;
10343;SDS011;5217;43.960;10.954;2022-10-15T01:41:24;4.43;;;3.25;;
10343;SDS011;5217;43.960;10.954;2022-10-15T01:43:59;3.70;;;3.05;;
10343;SDS011;5217;43.960;10.954;2022-10-15T01:46:33;5.15;;;3.13;;
10343;SDS011;5217;43.960;10.954;2022-10-15T01:49:06;3.92;;;3.13;;
10343;SDS011;5217;43.960;10.954;2022-10-15T01:51:37;4.30;;;3.25;;
10343;SDS011;5217;43.960;10.954;2022-10-15T01:54:10;3.30;;;2.70;;
10343;SDS011;5217;43.960;10.954;2022-10-15T01:56:41;4.10;;;2.97;;
10343;SDS011;5217;43.960;10.954;2022-10-15T01:59:15;5.28;;;3.33;;
10343;SDS011;5217;43.960;10.954;2022-10-15T02:01:48;4.90;;;3.17;;
10343;SDS011;5217;43.960;10.954;2022-10-15T02:04:17;4.85;;;3.78;;
10343;SDS011;5217;43.960;10.954;2022-10-15T02:06:48;4.43;;;3.35;;
10343;SDS011;5217;43.960;10.954;2022-10-15T02:09:24;3.40;;;3.10;;
10343;SDS011;5217;43.960;10.954;2022-10-15T02:11:59;4.50;;;3.53;;
10343;SDS011;5217;43.960;10.954;2022-10-15T02:14:39;4.03;;;3.47;;
10343;SDS011;5217;43.960;10.954;2022-10-15T02:17:15;3.70;;;3.35;;
10343;SDS011;5217;43.960;10.954;2022-10-15T02:19:47;4.65;;;3.47;;
10343;SDS011;5217;43.960;10.954;2022-10-15T02:22:20;3.88;;;3.10;;
10343;SDS011;5217;43.960;10.954;2022-10-15T02:24:52;5.95;;;3.50;;
10343;SDS011;5217;43.960;10.954;2022-10-15T02:27:24;4.72;;;3.47;;
10343;SDS011;5217;43.960;10.954;2022-10-15T02:29:54;3.40;;;3.10;;
10343;SDS011;5217;43.960;10.954;2022-10-15T02:32:26;5.18;;;3.28;;
10343;SDS011;5217;43.960;10.954;2022-10-15T02:34:56;6.55;;;3.45;;
10343;SDS011;5217;43.960;10.954;2022-10-15T02:37:26;5.05;;;3.42;;
10343;SDS011;5217;43.960;10.954;2022-10-15T02:39:56;4.78;;;3.40;;
10343;SDS011;5217;43.960;10.954;2022-10-15T02:42:24;4.38;;;3.20;;
10343;SDS011;5217;43.960;10.954;2022-10-15T02:44:53;6.07;;;3.65;;
10343;SDS011;5217;43.960;10.954;2022-10-15T02:47:21;4.68;;;3.58;;
10343;SDS011;5217;43.960;10.954;2022-10-15T02:49:56;4.72;;;3.70;;
10343;SDS011;5217;43.960;10.954;2022-10-15T02:52:24;5.35;;;3.33;;
10343;SDS011;5217;43.960;10.954;2022-10-15T02:54:53;5.85;;;3.38;;
10343;SDS011;5217;43.960;10.954;2022-10-15T02:57:21;4.15;;;3.35;;
10343;SDS011;5217;43.960;10.954;2022-10-15T02:59:50;4.88;;;3.10;;
10343;SDS011;5217;43.960;10.954;2022-10-15T03:02:18;4.82;;;3.60;;
10343;SDS011;5217;43.960;10.954;2022-10-15T03:04:47;4.22;;;3.30;;
10343;SDS011;5217;43.960;10.954;2022-10-15T03:07:16;4.20;;;3.30;;
10343;SDS011;5217;43.960;10.954;2022-10-15T03:09:45;5.82;;;3.55;;
10343;SDS011;5217;43.960;10.954;2022-10-15T03:12:13;3.97;;;3.13;;
10343;SDS011;5217;43.960;10.954;2022-10-15T03:14:42;3.75;;;3.20;;
10343;SDS011;5217;43.960;10.954;2022-10-15T03:17:10;5.18;;;3.45;;
10343;SDS011;5217;43.960;10.954;2022-10-15T03:19:39;4.43;;;3.30;;
10343;SDS011;5217;43.960;10.954;2022-10-15T03:22:08;3.65;;;3.05;;
10343;SDS011;5217;43.960;10.954;2022-10-15T03:24:38;4.97;;;3.38;;
10343;SDS011;5217;43.960;10.954;2022-10-15T03:27:06;4.18;;;3.35;;
10343;SDS011;5217;43.960;10.954;2022-10-15T03:29:35;5.20;;;3.30;;
10343;SDS011;5217;43.960;10.954;2022-10-15T03:32:04;3.53;;;2.97;;
10343;SDS011;5217;43.960;10.954;2022-10-15T03:34:32;3.80;;;3.38;;
10343;SDS011;5217;43.960;10.954;2022-10-15T03:37:01;3.47;;;3.17;;
10343;SDS011;5217;43.960;10.954;2022-10-15T03:39:31;4.93;;;3.38;;
10343;SDS011;5217;43.960;10.954;2022-10-15T03:42:01;4.20;;;3.47;;
10343;SDS011;5217;43.960;10.954;2022-10-15T03:44:30;4.88;;;3.80;;
10343;SDS011;5217;43.960;10.954;2022-10-15T03:47:00;5.95;;;4.40;;
10343;SDS011;5217;43.960;10.954;2022-10-15T03:49:29;6.05;;;5.00;;
10343;SDS011;5217;43.960;10.954;2022-10-15T03:51:57;5.65;;;4.72;;
10343;SDS011;5217;43.960;10.954;2022-10-15T03:54:26;6.15;;;5.15;;
10343;SDS011;5217;43.960;10.954;2022-10-15T03:56:54;6.93;;;4.63;;
10343;SDS011;5217;43.960;10.954;2022-10-15T03:59:24;7.10;;;4.60;;
10343;SDS011;5217;43.960;10.954;2022-10-15T04:01:52;6.70;;;4.30;;
10343;SDS011;5217;43.960;10.954;2022-10-15T04:04:21;5.00;;;4.20;;
10343;SDS011;5217;43.960;10.954;2022-10-15T04:06:49;6.25;;;4.60;;
10343;SDS011;5217;43.960;10.954;2022-10-15T04:09:17;5.28;;;4.18;;
10343;SDS011;5217;43.960;10.954;2022-10-15T04:11:46;4.40;;;3.83;;
10343;SDS011;5217;43.960;10.954;2022-10-15T04:14:14;6.25;;;4.32;;
10343;SDS011;5217;43.960;10.954;2022-10-15T04:16:44;5.75;;;4.38;;
10343;SDS011;5217;43.960;10.954;2022-10-15T04:19:12;4.47;;;3.80;;
10343;SDS011;5217;43.960;10.954;2022-10-15T04:21:41;7.22;;;4.47;;
10343;SDS011;5217;43.960;10.954;2022-10-15T04:24:09;5.22;;;3.70;;
10343;SDS011;5217;43.960;10.954;2022-10-15T04:26:38;5.25;;;3.90;;
10343;SDS011;5217;43.960;10.954;2022-10-15T04:29:06;6.00;;;3.60;;
10343;SDS011;5217;43.960;10.954;2022-10-15T04:31:34;4.70;;;3.55;;
10343;SDS011;5217;43.960;10.954;2022-10-15T04:34:04;4.00;;;3.60;;
10343;SDS011;5217;43.960;10.954;2022-10-15T04:36:33;5.28;;;3.72;;
10343;SDS011;5217;43.960;10.954;2022-10-15T04:39:02;6.45;;;4.00;;
10343;SDS011;5217;43.960;10.954;2022-10-15T04:41:36;7.47;;;4.20;;
10343;SDS011;5217;43.960;10.954;2022-10-15T04:44:04;4.32;;;3.90;;
10343;SDS011;5217;43.960;10.954;2022-10-15T04:46:32;5.43;;;3.83;;
10343;SDS011;5217;43.960;10.954;2022-10-15T04:49:01;6.22;;;4.03;;
10343;SDS011;5217;43.960;10.954;2022-10-15T04:51:31;6.85;;;3.88;;
10343;SDS011;5217;43.960;10.954;2022-10-15T04:53:59;5.30;;;3.70;;
10343;SDS011;5217;43.960;10.954;2022-10-15T04:56:28;4.13;;;3.72;;
10343;SDS011;5217;43.960;10.954;2022-10-15T04:58:56;5.55;;;3.97;;
10343;SDS011;5217;43.960;10.954;2022-10-15T05:01:25;8.35;;;4.28;;
10343;SDS011;5217;43.960;10.954;2022-10-15T05:03:53;6.80;;;4.20;;
10343;SDS011;5217;43.960;10.954;2022-10-15T05:06:21;6.80;;;5.90;;
10343;SDS011;5217;43.960;10.954;2022-10-15T05:08:51;11.48;;;7.00;;
10343;SDS011;5217;43.960;10.954;2022-10-15T05:11:20;13.23;;;9.45;;
10343;SDS011;5217;43.960;10.954;2022-10-15T05:13:50;20.25;;;14.38;;
10343;SDS011;5217;43.960;10.954;2022-10-15T05:16:22;29.52;;;19.38;;
10343;SDS011;5217;43.960;10.954;2022-10-15T05:18:52;28.60;;;21.73;;
10343;SDS011;5217;43.960;10.954;2022-10-15T05:21:22;29.05;;;20.55;;
10343;SDS011;5217;43.960;10.954;2022-10-15T05:23:52;24.10;;;19.15;;
10343;SDS011;5217;43.960;10.954;2022-10-15T05:26:21;24.75;;;18.23;;
10343;SDS011;5217;43.960;10.954;2022-10-15T05:28:51;25.98;;;18.27;;
10343;SDS011;5217;43.960;10.954;2022-10-15T05:31:20;22.10;;;18.20;;
10343;SDS011;5217;43.960;10.954;2022-10-15T05:33:51;23.25;;;17.45;;
10343;SDS011;5217;43.960;10.954;2022-10-15T05:36:21;22.33;;;16.98;;
10343;SDS011;5217;43.960;10.954;2022-10-15T05:38:53;24.35;;;17.05;;
10343;SDS011;5217;43.960;10.954;2022-10-15T05:41:22;22.45;;;17.15;;
10343;SDS011;5217;43.960;10.954;2022-10-15T05:43:52;23.88;;;17.65;;
10343;SDS011;5217;43.960;10.954;2022-10-15T05:46:22;23.63;;;17.83;;
10343;SDS011;5217;43.960;10.954;2022-10-15T05:48:51;28.50;;;20.65;;
10343;SDS011;5217;43.960;10.954;2022-10-15T05:51:21;23.85;;;18.38;;
10343;SDS011;5217;43.960;10.954;2022-10-15T05:53:50;23.52;;;17.02;;
10343;SDS011;5217;43.960;10.954;2022-10-15T05:56:20;19.88;;;15.57;;
10343;SDS011;5217;43.960;10.954;2022-10-15T05:58:49;21.08;;;15.15;;
10343;SDS011;5217;43.960;10.954;2022-10-15T06:01:18;20.77;;;15.98;;
10343;SDS011;5217;43.960;10.954;2022-10-15T06:03:47;21.55;;;16.83;;
10343;SDS011;5217;43.960;10.954;2022-10-15T06:06:16;23.33;;;17.67;;
10343;SDS011;5217;43.960;10.954;2022-10-15T06:08:46;24.27;;;19.00;;
10343;SDS011;5217;43.960;10.954;2022-10-15T06:11:16;22.40;;;18.42;;
10343;SDS011;5217;43.960;10.954;2022-10-15T06:13:45;23.38;;;18.10;;
10343;SDS011;5217;43.960;10.954;2022-10-15T06:16:14;22.60;;;17.30;;
10343;SDS011;5217;43.960;10.954;2022-10-15T06:18:50;24.58;;;17.42;;
10343;SDS011;5217;43.960;10.954;2022-10-15T06:21:19;25.73;;;19.35;;
10343;SDS011;5217;43.960;10.954;2022-10-15T06:23:47;27.40;;;19.63;;
10343;SDS011;5217;43.960;10.954;2022-10-15T06:26:17;25.95;;;18.65;;
10343;SDS011;5217;43.960;10.954;2022-10-15T06:28:45;22.65;;;18.13;;
10343;SDS011;5217;43.960;10.954;2022-10-15T06:31:13;27.50;;;18.83;;
10343;SDS011;5217;43.960;10.954;2022-10-15T06:33:42;23.08;;;18.10;;
10343;SDS011;5217;43.960;10.954;2022-10-15T06:36:10;25.55;;;17.08;;
10343;SDS011;5217;43.960;10.954;2022-10-15T06:38:40;22.42;;;17.65;;
10343;SDS011;5217;43.960;10.954;2022-10-15T06:41:09;24.17;;;17.73;;
10343;SDS011;5217;43.960;10.954;2022-10-15T06:43:39;23.05;;;17.33;;
10343;SDS011;5217;43.960;10.954;2022-10-15T06:46:08;20.38;;;15.68;;
10343;SDS011;5217;43.960;10.954;2022-10-15T06:48:37;20.60;;;15.05;;
10343;SDS011;5217;43.960;10.954;2022-10-15T06:51:05;17.30;;;14.07;;
10343;SDS011;5217;43.960;10.954;2022-10-15T06:53:34;19.35;;;15.00;;
10343;SDS011;5217;43.960;10.954;2022-10-15T06:56:02;20.98;;;14.90;;
10343;SDS011;5217;43.960;10.954;2022-10-15T06:58:31;20.70;;;14.43;;
10343;SDS011;5217;43.960;10.954;2022-10-15T07:01:01;17.23;;;13.60;;
10343;SDS011;5217;43.960;10.954;2022-10-15T07:03:30;15.88;;;13.05;;
10343;SDS011;5217;43.960;10.954;2022-10-15T07:06:00;15.68;;;12.55;;
10343;SDS011;5217;43.960;10.954;2022-10-15T07:08:30;18.73;;;12.68;;
10343;SDS011;5217;43.960;10.954;2022-10-15T07:10:59;16.33;;;12.93;;
10343;SDS011;5217;43.960;10.954;2022-10-15T07:13:28;14.90;;;11.93;;
10343;SDS011;5217;43.960;10.954;2022-10-15T07:15:57;15.27;;;11.68;;
10343;SDS011;5217;43.960;10.954;2022-10-15T07:18:26;14.15;;;11.95;;
10343;SDS011;5217;43.960;10.954;2022-10-15T07:20:55;16.23;;;12.50;;
10343;SDS011;5217;43.960;10.954;2022-10-15T07:23:24;15.43;;;12.32;;
10343;SDS011;5217;43.960;10.954;2022-10-15T07:25:53;13.45;;;11.38;;
10343;SDS011;5217;43.960;10.954;2022-10-15T07:28:23;15.48;;;11.38;;
10343;SDS011;5217;43.960;10.954;2022-10-15T07:30:52;13.70;;;10.32;;
10343;SDS011;5217;43.960;10.954;2022-10-15T07:33:21;10.88;;;9.10;;
10343;SDS011;5217;43.960;10.954;2022-10-15T07:35:50;13.93;;;9.68;;
10343;SDS011;5217;43.960;10.954;2022-10-15T07:38:19;12.25;;;9.07;;
10343;SDS011;5217;43.960;10.954;2022-10-15T07:40:47;12.20;;;10.60;;
10343;SDS011;5217;43.960;10.954;2022-10-15T07:43:16;12.18;;;9.90;;
10343;SDS011;5217;43.960;10.954;2022-10-15T07:45:46;11.25;;;9.65;;
10343;SDS011;5217;43.960;10.954;2022-10-15T07:48:15;11.40;;;9.50;;
10343;SDS011;5217;43.960;10.954;2022-10-15T07:50:44;12.23;;;8.63;;
10343;SDS011;5217;43.960;10.954;2022-10-15T07:53:14;10.75;;;9.02;;
10343;SDS011;5217;43.960;10.954;2022-10-15T07:55:47;9.13;;;8.15;;
10343;SDS011;5217;43.960;10.954;2022-10-15T07:58:15;11.02;;;8.18;;
10343;SDS011;5217;43.960;10.954;2022-10-15T08:00:44;11.93;;;9.32;;
10343;SDS011;5217;43.960;10.954;2022-10-15T08:03:13;11.52;;;9.05;;
10343;SDS011;5217;43.960;10.954;2022-10-15T08:05:41;11.93;;;9.73;;
10343;SDS011;5217;43.960;10.954;2022-10-15T08:08:10;12.38;;;9.93;;
10343;SDS011;5217;43.960;10.954;2022-10-15T08:10:39;11.98;;;10.60;;
10343;SDS011;5217;43.960;10.954;2022-10-15T08:13:08;11.52;;;9.63;;
10343;SDS011;5217;43.960;10.954;2022-10-15T08:15:37;10.13;;;8.75;;
10343;SDS011;5217;43.960;10.954;2022-10-15T08:18:06;9.90;;;8.38;;
10343;SDS011;5217;43.960;10.954;2022-10-15T08:20:35;9.85;;;8.85;;
10343;SDS011;5217;43.960;10.954;2022-10-15T08:23:04;12.50;;;10.90;;
10343;SDS011;5217;43.960;10.954;2022-10-15T08:25:33;15.85;;;12.82;;
10343;SDS011;5217;43.960;10.954;2022-10-15T08:28:03;15.90;;;13.32;;
10343;SDS011;5217;43.960;10.954;2022-10-15T08:30:32;18.25;;;15.93;;
10343;SDS011;5217;43.960;10.954;2022-10-15T08:33:00;20.02;;;16.38;;
10343;SDS011;5217;43.960;10.954;2022-10-15T08:35:29;23.15;;;17.88;;
10343;SDS011;5217;43.960;10.954;2022-10-15T08:38:00;23.60;;;19.10;;
10343;SDS011;5217;43.960;10.954;2022-10-15T08:40:29;24.30;;;19.08;;
10343;SDS011;5217;43.960;10.954;2022-10-15T08:42:57;23.10;;;18.75;;
10343;SDS011;5217;43.960;10.954;2022-10-15T08:45:28;23.23;;;17.75;;
10343;SDS011;5217;43.960;10.954;2022-10-15T08:48:00;22.08;;;16.48;;
10343;SDS011;5217;43.960;10.954;2022-10-15T08:50:35;19.35;;;14.90;;
10343;SDS011;5217;43.960;10.954;2022-10-15T08:53:09;20.48;;;14.07;;
10343;SDS011;5217;43.960;10.954;2022-10-15T08:55:41;17.60;;;13.27;;
10343;SDS011;5217;43.960;10.954;2022-10-15T08:58:13;14.50;;;12.15;;
10343;SDS011;5217;43.960;10.954;2022-10-15T09:00:49;15.43;;;12.93;;
10343;SDS011;5217;43.960;10.954;2022-10-15T09:03:24;14.57;;;11.70;;
10343;SDS011;5217;43.960;10.954;2022-10-15T09:06:00;14.25;;;11.07;;
10343;SDS011;5217;43.960;10.954;2022-10-15T09:08:37;13.55;;;9.55;;
10343;SDS011;5217;43.960;10.954;2022-10-15T09:11:13;14.88;;;9.38;;
10343;SDS011;5217;43.960;10.954;2022-10-15T09:13:46;10.23;;;8.88;;
10343;SDS011;5217;43.960;10.954;2022-10-15T09:16:17;14.90;;;8.80;;
10343;SDS011;5217;43.960;10.954;2022-10-15T09:18:49;11.70;;;8.13;;
10343;SDS011;5217;43.960;10.954;2022-10-15T09:21:19;11.20;;;7.57;;
10343;SDS011;5217;43.960;10.954;2022-10-15T09:23:51;11.13;;;7.43;;
10343;SDS011;5217;43.960;10.954;2022-10-15T09:26:24;9.50;;;7.18;;
10343;SDS011;5217;43.960;10.954;2022-10-15T09:29:00;13.18;;;8.13;;
10343;SDS011;5217;43.960;10.954;2022-10-15T09:31:41;7.43;;;6.20;;
10343;SDS011;5217;43.960;10.954;2022-10-15T09:34:18;6.97;;;6.28;;
10343;SDS011;5217;43.960;10.954;2022-10-15T09:36:53;8.23;;;7.20;;
10343;SDS011;5217;43.960;10.954;2022-10-15T09:39:31;7.68;;;5.57;;
10343;SDS011;5217;43.960;10.954;2022-10-15T09:42:21;10.07;;;6.57;;
10343;SDS011;5217;43.960;10.954;2022-10-15T09:44:56;9.93;;;7.00;;
10343;SDS011;5217;43.960;10.954;2022-10-15T09:47:29;8.57;;;6.60;;
10343;SDS011;5217;43.960;10.954;2022-10-15T09:49:59;7.32;;;6.13;;
10343;SDS011;5217;43.960;10.954;2022-10-15T09:52:34;8.30;;;6.43;;
10343;SDS011;5217;43.960;10.954;2022-10-15T09:55:17;8.32;;;6.93;;
10343;SDS011;5217;43.960;10.954;2022-10-15T09:58:00;7.97;;;6.40;;
10343;SDS011;5217;43.960;10.954;2022-10-15T10:03:21;6.72;;;5.97;;
10343;SDS011;5217;43.960;10.954;2022-10-15T10:05:56;9.20;;;6.22;;
10343;SDS011;5217;43.960;10.954;2022-10-15T10:08:28;10.27;;;6.93;;
10343;SDS011;5217;43.960;10.954;2022-10-15T10:11:01;9.88;;;6.50;;
10343;SDS011;5217;43.960;10.954;2022-10-15T10:13:31;8.95;;;6.32;;
10343;SDS011;5217;43.960;10.954;2022-10-15T10:16:12;7.38;;;6.03;;
10343;SDS011;5217;43.960;10.954;2022-10-15T10:18:43;8.63;;;6.10;;
10343;SDS011;5217;43.960;10.954;2022-10-15T10:21:29;10.35;;;6.43;;
10343;SDS011;5217;43.960;10.954;2022-10-15T10:23:59;7.38;;;5.80;;
10343;SDS011;5217;43.960;10.954;2022-10-15T10:26:46;6.63;;;5.93;;
10343;SDS011;5217;43.960;10.954;2022-10-15T10:29:16;6.82;;;4.80;;
10343;SDS011;5217;43.960;10.954;2022-10-15T10:32:00;9.30;;;5.43;;
10343;SDS011;5217;43.960;10.954;2022-10-15T10:34:39;7.03;;;5.13;;
10343;SDS011;5217;43.960;10.954;2022-10-15T10:37:15;5.93;;;4.75;;
10343;SDS011;5217;43.960;10.954;2022-10-15T10:39:44;9.55;;;4.78;;
10343;SDS011;5217;43.960;10.954;2022-10-15T10:42:24;6.95;;;4.97;;
10343;SDS011;5217;43.960;10.954;2022-10-15T10:45:06;5.43;;;4.35;;
10343;SDS011;5217;43.960;10.954;2022-10-15T10:47:44;6.50;;;4.57;;
10343;SDS011;5217;43.960;10.954;2022-10-15T10:50:29;9.18;;;4.95;;
10343;SDS011;5217;43.960;10.954;2022-10-15T10:53:10;7.38;;;4.93;;
10343;SDS011;5217;43.960;10.954;2022-10-15T10:55:47;6.45;;;4.88;;
10343;SDS011;5217;43.960;10.954;2022-10-15T10:58:17;6.80;;;4.70;;
10343;SDS011;5217;43.960;10.954;2022-10-15T11:00:55;5.53;;;4.60;;
10343;SDS011;5217;43.960;10.954;2022-10-15T11:03:28;5.85;;;4.20;;
10343;SDS011;5217;43.960;10.954;2022-10-15T11:06:09;6.13;;;4.38;;
10343;SDS011;5217;43.960;10.954;2022-10-15T11:08:58;5.97;;;4.95;;
10343;SDS011;5217;43.960;10.954;2022-10-15T11:11:36;9.45;;;5.50;;
10343;SDS011;5217;43.960;10.954;2022-10-15T11:14:18;8.38;;;5.60;;
10343;SDS011;5217;43.960;10.954;2022-10-15T11:16:56;8.80;;;5.35;;
10343;SDS011;5217;43.960;10.954;2022-10-15T11:19:36;7.13;;;5.00;;
10343;SDS011;5217;43.960;10.954;2022-10-15T11:22:33;5.88;;;4.45;;
10343;SDS011;5217;43.960;10.954;2022-10-15T11:25:18;8.63;;;5.25;;
10343;SDS011;5217;43.960;10.954;2022-10-15T11:27:55;7.85;;;5.30;;
10343;SDS011;5217;43.960;10.954;2022-10-15T11:30:41;7.90;;;5.18;;
10343;SDS011;5217;43.960;10.954;2022-10-15T11:33:22;9.45;;;5.30;;
10343;SDS011;5217;43.960;10.954;2022-10-15T11:36:12;7.22;;;4.90;;
10343;SDS011;5217;43.960;10.954;2022-10-15T11:38:53;8.20;;;4.82;;
10343;SDS011;5217;43.960;10.954;2022-10-15T11:41:43;7.70;;;5.57;;
10343;SDS011;5217;43.960;10.954;2022-10-15T11:44:28;8.48;;;5.90;;
10343;SDS011;5217;43.960;10.954;2022-10-15T11:47:09;6.93;;;5.30;;
10343;SDS011;5217;43.960;10.954;2022-10-15T11:49:48;7.53;;;5.47;;
10343;SDS011;5217;43.960;10.954;2022-10-15T11:52:37;6.07;;;4.80;;
10343;SDS011;5217;43.960;10.954;2022-10-15T11:55:16;6.68;;;4.85;;
10343;SDS011;5217;43.960;10.954;2022-10-15T11:57:48;9.52;;;5.35;;
10343;SDS011;5217;43.960;10.954;2022-10-15T12:00:26;7.38;;;5.00;;
10343;SDS011;5217;43.960;10.954;2022-10-15T12:02:59;9.30;;;5.28;;
10343;SDS011;5217;43.960;10.954;2022-10-15T12:05:32;8.43;;;5.20;;
10343;SDS011;5217;43.960;10.954;2022-10-15T12:08:04;6.63;;;4.78;;
10343;SDS011;5217;43.960;10.954;2022-10-15T12:10:49;7.13;;;4.88;;
10343;SDS011;5217;43.960;10.954;2022-10-15T12:13:30;9.50;;;5.40;;
10343;SDS011;5217;43.960;10.954;2022-10-15T12:16:09;7.18;;;5.13;;
10343;SDS011;5217;43.960;10.954;2022-10-15T12:18:47;7.25;;;4.82;;
10343;SDS011;5217;43.960;10.954;2022-10-15T12:21:29;6.60;;;5.20;;
10343;SDS011;5217;43.960;10.954;2022-10-15T12:24:00;9.05;;;5.07;;
10343;SDS011;5217;43.960;10.954;2022-10-15T12:26:31;8.98;;;5.38;;
10343;SDS011;5217;43.960;10.954;2022-10-15T12:29:01;12.40;;;5.68;;
10343;SDS011;5217;43.960;10.954;2022-10-15T12:31:45;9.50;;;5.50;;
10343;SDS011;5217;43.960;10.954;2022-10-15T12:34:23;8.68;;;5.28;;
10343;SDS011;5217;43.960;10.954;2022-10-15T12:36:59;11.02;;;5.97;;
10343;SDS011;5217;43.960;10.954;2022-10-15T12:39:31;12.25;;;5.93;;
10343;SDS011;5217;43.960;10.954;2022-10-15T12:42:24;10.30;;;5.13;;
10343;SDS011;5217;43.960;10.954;2022-10-15T12:44:54;8.77;;;4.90;;
10343;SDS011;5217;43.960;10.954;2022-10-15T12:50:16;7.43;;;4.68;;
10343;SDS011;5217;43.960;10.954;2022-10-15T12:52:56;8.82;;;4.75;;
10343;SDS011;5217;43.960;10.954;2022-10-15T12:55:30;8.82;;;4.60;;
10343;SDS011;5217;43.960;10.954;2022-10-15T12:58:02;6.65;;;4.63;;
10343;SDS011;5217;43.960;10.954;2022-10-15T13:00:39;10.75;;;5.85;;
10343;SDS011;5217;43.960;10.954;2022-10-15T13:03:14;7.88;;;4.90;;
10343;SDS011;5217;43.960;10.954;2022-10-15T13:06:21;8.55;;;5.28;;
10343;SDS011;5217;43.960;10.954;2022-10-15T13:09:02;6.47;;;4.35;;
10343;SDS011;5217;43.960;10.954;2022-10-15T13:11:39;6.43;;;4.85;;
10343;SDS011;5217;43.960;10.954;2022-10-15T13:14:16;10.45;;;5.30;;
10343;SDS011;5217;43.960;10.954;2022-10-15T13:16:53;7.80;;;4.72;;
10343;SDS011;5217;43.960;10.954;2022-10-15T13:19:22;9.80;;;5.10;;
10343;SDS011;5217;43.960;10.954;2022-10-15T13:21:57;8.15;;;5.35;;
10343;SDS011;5217;43.960;10.954;2022-10-15T13:24:27;8.02;;;5.60;;
10343;SDS011;5217;43.960;10.954;2022-10-15T13:26:59;8.05;;;5.30;;
10343;SDS011;5217;43.960;10.954;2022-10-15T13:29:29;7.90;;;5.30;;
10343;SDS011;5217;43.960;10.954;2022-10-15T13:31:57;10.55;;;5.40;;
10343;SDS011;5217;43.960;10.954;2022-10-15T13:34:28;6.35;;;5.00;;
10343;SDS011;5217;43.960;10.954;2022-10-15T13:36:58;7.47;;;4.78;;
10343;SDS011;5217;43.960;10.954;2022-10-15T13:39:28;6.30;;;5.15;;
10343;SDS011;5217;43.960;10.954;2022-10-15T13:42:07;8.23;;;5.15;;
10343;SDS011;5217;43.960;10.954;2022-10-15T13:44:54;8.32;;;4.78;;
10343;SDS011;5217;43.960;10.954;2022-10-15T13:47:25;7.85;;;5.32;;
10343;SDS011;5217;43.960;10.954;2022-10-15T13:50:12;6.43;;;4.93;;
10343;SDS011;5217;43.960;10.954;2022-10-15T13:52:45;10.68;;;5.90;;
10343;SDS011;5217;43.960;10.954;2022-10-15T13:55:18;8.02;;;4.90;;
10343;SDS011;5217;43.960;10.954;2022-10-15T13:57:48;6.70;;;4.47;;
10343;SDS011;5217;43.960;10.954;2022-10-15T14:00:20;7.93;;;4.75;;
10343;SDS011;5217;43.960;10.954;2022-10-15T14:05:43;7.50;;;5.10;;
10343;SDS011;5217;43.960;10.954;2022-10-15T14:08:16;6.18;;;4.45;;
10343;SDS011;5217;43.960;10.954;2022-10-15T14:10:50;6.43;;;4.70;;
10343;SDS011;5217;43.960;10.954;2022-10-15T14:13:20;5.22;;;4.30;;
10343;SDS011;5217;43.960;10.954;2022-10-15T14:15:55;7.47;;;4.85;;
10343;SDS011;5217;43.960;10.954;2022-10-15T14:18:30;7.85;;;4.40;;
10343;SDS011;5217;43.960;10.954;2022-10-15T14:21:02;6.70;;;4.47;;
10343;SDS011;5217;43.960;10.954;2022-10-15T14:23:36;11.00;;;5.40;;
10343;SDS011;5217;43.960;10.954;2022-10-15T14:26:06;6.97;;;5.13;;
10343;SDS011;5217;43.960;10.954;2022-10-15T14:28:36;7.40;;;5.20;;
10343;SDS011;5217;43.960;10.954;2022-10-15T14:31:06;7.38;;;4.82;;
10343;SDS011;5217;43.960;10.954;2022-10-15T14:33:39;7.35;;;5.18;;
10343;SDS011;5217;43.960;10.954;2022-10-15T14:36:14;7.88;;;5.05;;
10343;SDS011;5217;43.960;10.954;2022-10-15T14:38:51;8.10;;;5.13;;
10343;SDS011;5217;43.960;10.954;2022-10-15T14:41:23;10.13;;;5.65;;
10343;SDS011;5217;43.960;10.954;2022-10-15T14:44:00;6.97;;;5.13;;
10343;SDS011;5217;43.960;10.954;2022-10-15T14:46:36;7.93;;;5.45;;
10343;SDS011;5217;43.960;10.954;2022-10-15T14:51:58;7.93;;;5.15;;
10343;SDS011;5217;43.960;10.954;2022-10-15T14:54:32;7.70;;;5.53;;
10343;SDS011;5217;43.960;10.954;2022-10-15T14:57:03;8.23;;;5.35;;
10343;SDS011;5217;43.960;10.954;2022-10-15T14:59:34;42.90;;;8.60;;
10343;SDS011;5217;43.960;10.954;2022-10-15T15:02:05;24.98;;;7.13;;
10343;SDS011;5217;43.960;10.954;2022-10-15T15:04:41;17.30;;;6.70;;
10343;SDS011;5217;43.960;10.954;2022-10-15T15:07:11;9.68;;;5.22;;
10343;SDS011;5217;43.960;10.954;2022-10-15T15:09:42;9.07;;;4.88;;
10343;SDS011;5217;43.960;10.954;2022-10-15T15:12:16;7.47;;;4.30;;
10343;SDS011;5217;43.960;10.954;2022-10-15T15:14:53;8.20;;;4.75;;
10343;SDS011;5217;43.960;10.954;2022-10-15T15:17:23;7.38;;;4.80;;
10343;SDS011;5217;43.960;10.954;2022-10-15T15:19:54;7.30;;;4.63;;
10343;SDS011;5217;43.960;10.954;2022-10-15T15:22:25;8.77;;;5.78;;
10343;SDS011;5217;43.960;10.954;2022-10-15T15:24:56;9.18;;;5.20;;
10343;SDS011;5217;43.960;10.954;2022-10-15T15:27:27;12.48;;;5.57;;